createdAt,value
2023-01-10T00:02:11.525Z,27.40
2023-01-10T00:04:39.808Z,32.50
2023-01-10T00:07:08.602Z,34.20
2023-01-10T00:09:36.909Z,31.30
2023-01-10T00:12:24.575Z,33.90
2023-01-10T00:14:52.956Z,32.80
2023-01-10T00:17:21.951Z,34.10
2023-01-10T00:19:50.308Z,30.80
2023-01-10T00:22:21.455Z,30.60
2023-01-10T00:24:49.825Z,31.20
2023-01-10T00:27:22.734Z,38.70
2023-01-10T00:29:52.480Z,31.90
2023-01-10T00:32:21.810Z,32.10
2023-01-10T00:34:50.177Z,31.80
2023-01-10T00:37:18.684Z,31.10
2023-01-10T00:39:47.049Z,33.50
2023-01-10T00:42:34.252Z,39.00
2023-01-10T00:45:02.657Z,35.60
2023-01-10T00:47:30.971Z,32.30
2023-01-10T00:49:59.350Z,40.50
2023-01-10T00:52:27.790Z,32.60
2023-01-10T00:54:56.095Z,39.90
2023-01-10T00:57:24.423Z,31.20
2023-01-10T00:59:52.748Z,31.40
2023-01-10T01:02:21.420Z,26.10
2023-01-10T01:04:49.859Z,28.40
2023-01-10T01:07:18.240Z,27.70
2023-01-10T01:10:04.875Z,30.40
2023-01-10T01:12:33.286Z,32.20
2023-01-10T01:15:01.693Z,30.60
2023-01-10T01:17:30.071Z,31.80
2023-01-10T01:19:58.500Z,27.80
2023-01-10T01:22:26.817Z,30.40
2023-01-10T01:24:55.171Z,27.40
2023-01-10T01:27:23.471Z,25.70
2023-01-10T01:29:51.778Z,23.30
2023-01-10T01:32:21.968Z,23.50
2023-01-10T01:34:50.752Z,21.40
2023-01-10T01:37:19.744Z,22.60
2023-01-10T01:39:48.251Z,22.10
2023-01-10T01:42:27.995Z,22.70
2023-01-10T01:45:08.628Z,22.50
2023-01-10T01:47:55.843Z,21.30
2023-01-10T01:50:55.078Z,23.90
2023-01-10T01:53:47.628Z,25.10
2023-01-10T01:56:25.845Z,25.20
2023-01-10T01:59:07.296Z,23.70
2023-01-10T02:01:39.052Z,24.70
2023-01-10T02:04:18.340Z,31.00
2023-01-10T02:06:51.455Z,25.70
2023-01-10T02:09:35.026Z,26.60
2023-01-10T02:12:04.604Z,28.70
2023-01-10T02:14:34.428Z,22.80
2023-01-10T02:17:02.770Z,24.10
2023-01-10T02:20:07.483Z,22.30
2023-01-10T02:22:51.656Z,24.00
2023-01-10T02:26:01.863Z,26.90
2023-01-10T02:29:10.513Z,25.60
2023-01-10T02:32:11.857Z,24.20
2023-01-10T02:35:25.112Z,26.10
2023-01-10T02:38:08.784Z,23.20
2023-01-10T02:40:59.581Z,20.40
2023-01-10T02:43:36.170Z,20.00
2023-01-10T02:46:13.274Z,23.70
2023-01-10T02:48:41.585Z,18.20
2023-01-10T02:51:23.604Z,21.30
2023-01-10T02:54:19.901Z,17.90
2023-01-10T02:57:09.606Z,17.40
2023-01-10T02:59:59.676Z,15.00
2023-01-10T03:03:08.890Z,23.00
2023-01-10T03:06:13.568Z,19.40
2023-01-10T03:08:59.560Z,17.50
2023-01-10T03:11:44.033Z,18.60
2023-01-10T03:14:24.343Z,24.30
2023-01-10T03:17:04.001Z,19.00
2023-01-10T03:19:49.970Z,17.60
2023-01-10T03:22:18.758Z,16.10
2023-01-10T03:24:50.141Z,18.00
2023-01-10T03:27:49.146Z,16.50
2023-01-10T03:30:30.590Z,18.50
2023-01-10T03:33:00.038Z,17.70
2023-01-10T03:35:48.387Z,14.80
2023-01-10T03:38:32.641Z,15.40
2023-01-10T03:41:26.348Z,20.60
2023-01-10T03:44:50.684Z,15.10
2023-01-10T03:47:47.821Z,18.80
2023-01-10T03:50:24.503Z,12.90
2023-01-10T03:52:53.286Z,13.40
2023-01-10T03:55:26.304Z,12.70
2023-01-10T03:57:55.036Z,16.70
2023-01-10T04:00:24.349Z,11.50
2023-01-10T04:02:52.810Z,13.40
2023-01-10T04:05:21.235Z,9.80
2023-01-10T04:07:49.587Z,7.70
2023-01-10T04:10:17.965Z,9.90
2023-01-10T04:12:46.280Z,10.20
2023-01-10T04:15:14.767Z,9.50
2023-01-10T04:17:43.294Z,6.90
2023-01-10T04:20:12.013Z,7.60
2023-01-10T04:22:40.294Z,7.70
2023-01-10T04:25:09.056Z,5.40
2023-01-10T04:27:37.524Z,9.90
2023-01-10T04:30:07.108Z,9.50
2023-01-10T04:32:35.629Z,6.60
2023-01-10T04:35:04.113Z,7.50
2023-01-10T04:37:32.489Z,9.60
2023-01-10T04:40:00.927Z,8.50
2023-01-10T04:42:29.261Z,7.60
2023-01-10T04:44:57.951Z,8.20
2023-01-10T04:47:26.302Z,10.50
2023-01-10T04:49:54.601Z,10.50
2023-01-10T04:52:25.233Z,9.00
2023-01-10T04:54:53.545Z,9.70
2023-01-10T04:57:22.003Z,8.40
2023-01-10T04:59:50.334Z,8.80
2023-01-10T05:02:18.761Z,9.70
2023-01-10T05:04:47.164Z,9.00
2023-01-10T05:07:15.500Z,7.10
2023-01-10T05:09:43.865Z,8.20
2023-01-10T05:12:12.258Z,7.50
2023-01-10T05:14:40.552Z,8.30
2023-01-10T05:17:08.855Z,8.30
2023-01-10T05:19:37.220Z,9.30
2023-01-10T05:22:05.511Z,12.10
2023-01-10T05:24:33.877Z,9.10
2023-01-10T05:27:02.200Z,10.40
2023-01-10T05:29:30.726Z,8.00
2023-01-10T05:31:59.222Z,12.30
2023-01-10T05:34:27.724Z,7.80
2023-01-10T05:36:56.123Z,10.20
2023-01-10T05:39:24.487Z,9.80
2023-01-10T05:41:52.811Z,12.10
2023-01-10T05:44:21.317Z,15.00
2023-01-10T05:46:49.756Z,10.30
2023-01-10T05:49:18.086Z,11.10
2023-01-10T05:51:46.453Z,12.50
2023-01-10T05:54:14.971Z,17.40
2023-01-10T05:56:43.249Z,34.30
2023-01-10T05:59:23.811Z,19.70
2023-01-10T06:01:56.637Z,13.20
2023-01-10T06:04:25.028Z,9.20
2023-01-10T06:06:53.337Z,8.50
2023-01-10T06:09:21.732Z,8.80
2023-01-10T06:11:50.100Z,9.30
2023-01-10T06:14:19.543Z,29.10
2023-01-10T06:16:48.296Z,34.50
2023-01-10T06:19:16.719Z,24.10
2023-01-10T06:21:45.149Z,12.00
2023-01-10T06:24:13.484Z,12.00
2023-01-10T06:26:41.797Z,7.50
2023-01-10T06:29:10.373Z,10.20
2023-01-10T06:31:38.779Z,7.70
2023-01-10T06:34:07.225Z,10.40
2023-01-10T06:36:35.656Z,11.20
2023-01-10T06:39:04.133Z,10.80
2023-01-10T06:41:32.480Z,10.20
2023-01-10T06:44:00.783Z,25.80
2023-01-10T06:46:29.165Z,25.60
2023-01-10T06:48:57.452Z,18.90
2023-01-10T06:51:25.945Z,12.40
2023-01-10T06:53:54.210Z,11.40
2023-01-10T06:56:22.644Z,12.10
2023-01-10T06:58:51.660Z,16.00
2023-01-10T07:01:22.069Z,12.50
2023-01-10T07:03:50.691Z,13.50
2023-01-10T07:06:19.089Z,8.00
2023-01-10T07:08:47.791Z,10.60
2023-01-10T07:11:17.757Z,11.10
2023-01-10T07:13:46.347Z,13.90
2023-01-10T07:16:16.519Z,14.30
2023-01-10T07:18:45.628Z,10.10
2023-01-10T07:21:14.298Z,10.10
2023-01-10T07:23:43.372Z,6.90
2023-01-10T07:26:17.532Z,7.40
2023-01-10T07:28:52.714Z,9.90
2023-01-10T07:31:23.832Z,8.20
2023-01-10T07:33:52.749Z,13.70
2023-01-10T07:36:21.533Z,9.00
2023-01-10T07:38:50.022Z,13.10
2023-01-10T07:41:18.438Z,13.10
2023-01-10T07:43:46.954Z,10.50
2023-01-10T07:46:15.717Z,11.70
2023-01-10T07:48:46.225Z,11.70
2023-01-10T07:51:15.027Z,12.20
2023-01-10T07:53:43.443Z,12.20
2023-01-10T07:56:12.089Z,16.40
2023-01-10T07:58:40.591Z,12.10
2023-01-10T08:01:09.023Z,12.00
2023-01-10T08:03:37.633Z,12.70
2023-01-10T08:06:14.766Z,15.50
2023-01-10T08:08:44.334Z,13.00
2023-01-10T08:11:12.749Z,15.20
2023-01-10T08:13:41.127Z,19.40
2023-01-10T08:16:09.878Z,18.00
2023-01-10T08:18:42.429Z,21.30
2023-01-10T08:21:11.025Z,19.70
2023-01-10T08:23:39.459Z,11.90
2023-01-10T08:26:07.911Z,29.60
2023-01-10T08:28:36.330Z,21.70
2023-01-10T08:31:07.832Z,19.50
2023-01-10T08:33:40.875Z,17.00
2023-01-10T08:36:18.578Z,30.10
2023-01-10T08:38:47.867Z,20.70
2023-01-10T08:41:16.397Z,16.10
2023-01-10T08:43:44.787Z,9.70
2023-01-10T08:46:13.110Z,12.60
2023-01-10T08:48:41.592Z,10.10
2023-01-10T08:51:10.348Z,12.80
2023-01-10T08:53:42.525Z,10.70
2023-01-10T08:56:11.404Z,13.50
2023-01-10T08:58:39.779Z,8.50
2023-01-10T09:01:09.320Z,9.60
2023-01-10T09:03:37.799Z,7.30
2023-01-10T09:06:08.305Z,7.70
2023-01-10T09:08:37.556Z,8.50
2023-01-10T09:11:07.240Z,9.70
2023-01-10T09:13:35.676Z,13.00
2023-01-10T09:16:04.608Z,15.00
2023-01-10T09:18:34.135Z,10.00
2023-01-10T09:21:03.390Z,6.60
2023-01-10T09:23:31.772Z,9.00
2023-01-10T09:26:01.337Z,7.40
2023-01-10T09:28:29.720Z,9.10
2023-01-10T09:30:58.033Z,11.10
2023-01-10T09:33:28.091Z,10.90
2023-01-10T09:35:59.188Z,8.00
2023-01-10T09:38:27.497Z,7.10
2023-01-10T09:41:14.442Z,12.00
2023-01-10T09:44:14.730Z,11.30
2023-01-10T09:47:08.461Z,7.90
2023-01-10T09:49:55.699Z,6.70
2023-01-10T09:52:40.095Z,12.20
2023-01-10T09:55:33.582Z,11.70
2023-01-10T09:58:11.947Z,10.70
2023-01-10T10:00:43.899Z,9.40
2023-01-10T10:03:27.832Z,10.70
2023-01-10T10:06:10.575Z,10.60
2023-01-10T10:08:46.690Z,8.30
2023-01-10T10:11:27.064Z,8.80
2023-01-10T10:14:07.411Z,10.50
2023-01-10T10:17:07.188Z,8.70
2023-01-10T10:20:00.181Z,7.20
2023-01-10T10:22:59.549Z,7.40
2023-01-10T10:25:52.619Z,10.90
2023-01-10T10:29:00.183Z,7.90
2023-01-10T10:31:44.802Z,7.40
2023-01-10T10:34:38.417Z,8.00
2023-01-10T10:37:33.664Z,8.80
2023-01-10T10:40:14.468Z,11.30
2023-01-10T10:42:56.238Z,12.30
2023-01-10T10:45:48.946Z,7.90
2023-01-10T10:48:30.488Z,10.40
2023-01-10T10:51:17.016Z,10.40
2023-01-10T10:53:46.351Z,12.90
2023-01-10T10:56:20.763Z,8.90
2023-01-10T10:58:53.841Z,10.50
2023-01-10T11:01:25.454Z,7.90
2023-01-10T11:04:08.517Z,10.10
2023-01-10T11:06:38.680Z,8.50
2023-01-10T11:09:08.227Z,8.30
2023-01-10T11:11:45.068Z,10.00
2023-01-10T11:14:13.585Z,8.80
2023-01-10T11:16:45.004Z,7.50
2023-01-10T11:19:19.617Z,7.40
2023-01-10T11:21:57.519Z,7.50
2023-01-10T11:24:35.056Z,9.20
2023-01-10T11:27:16.963Z,7.30
2023-01-10T11:29:49.019Z,15.60
2023-01-10T11:32:22.359Z,10.10
2023-01-10T11:34:55.946Z,6.50
2023-01-10T11:37:32.756Z,6.80
2023-01-10T11:40:32.104Z,4.90
2023-01-10T11:43:20.806Z,9.80
2023-01-10T11:46:02.272Z,8.70
2023-01-10T11:49:04.885Z,11.20
2023-01-10T11:51:39.564Z,13.00
2023-01-10T11:54:17.594Z,9.10
2023-01-10T11:57:16.340Z,8.10
2023-01-10T12:00:00.239Z,8.00
2023-01-10T12:02:42.300Z,8.80
2023-01-10T12:05:19.866Z,10.30
2023-01-10T12:08:07.874Z,9.90
2023-01-10T12:10:36.645Z,7.60
2023-01-10T12:13:17.480Z,13.20
2023-01-10T12:15:47.037Z,9.20
2023-01-10T12:18:17.762Z,9.90
2023-01-10T12:20:52.777Z,15.70
2023-01-10T12:23:25.135Z,8.40
2023-01-10T12:26:07.078Z,7.90
2023-01-10T12:28:47.567Z,12.80
2023-01-10T12:31:16.693Z,8.60
2023-01-10T12:33:53.549Z,8.00
2023-01-10T12:37:14.722Z,9.00
2023-01-10T12:40:02.392Z,14.30
2023-01-10T12:43:52.226Z,8.70
2023-01-10T12:47:00.492Z,11.40
2023-01-10T12:49:32.945Z,8.40
2023-01-10T12:52:14.903Z,9.00
2023-01-10T12:54:47.220Z,5.80
2023-01-10T12:57:40.751Z,8.00
2023-01-10T13:00:37.668Z,8.80
2023-01-10T13:03:27.688Z,10.80
2023-01-10T13:05:58.735Z,10.20
2023-01-10T13:08:33.510Z,7.20
2023-01-10T13:11:04.710Z,7.00
2023-01-10T13:13:42.156Z,8.30
2023-01-10T13:16:47.616Z,10.30
2023-01-10T13:19:19.826Z,10.40
2023-01-10T13:21:48.889Z,8.60
2023-01-10T13:24:26.393Z,10.50
2023-01-10T13:26:57.867Z,10.40
2023-01-10T13:29:30.444Z,15.10
2023-01-10T13:32:02.089Z,9.70
2023-01-10T13:34:36.023Z,8.20
2023-01-10T13:37:19.235Z,12.00
2023-01-10T13:39:58.324Z,9.70
2023-01-10T13:42:52.462Z,19.90
2023-01-10T13:45:27.694Z,14.30
2023-01-10T13:47:56.949Z,14.40
2023-01-10T13:50:36.398Z,15.60
2023-01-10T13:53:05.322Z,13.50
2023-01-10T13:55:39.555Z,11.30
2023-01-10T13:58:13.820Z,11.80
2023-01-10T14:01:16.465Z,12.80
2023-01-10T14:03:58.461Z,17.20
2023-01-10T14:06:29.586Z,9.70
2023-01-10T14:09:06.502Z,13.30
2023-01-10T14:11:44.075Z,12.00
2023-01-10T14:14:28.505Z,10.80
2023-01-10T14:17:22.024Z,11.10
2023-01-10T14:20:22.943Z,11.90
2023-01-10T14:23:23.408Z,10.80
2023-01-10T14:25:56.232Z,9.30
2023-01-10T14:28:31.829Z,7.40
2023-01-10T14:31:28.255Z,7.70
2023-01-10T14:33:59.083Z,6.20
2023-01-10T14:36:33.897Z,8.60
2023-01-10T14:39:07.293Z,8.90
2023-01-10T14:41:43.457Z,10.50
2023-01-10T14:45:00.200Z,12.50
2023-01-10T14:47:35.661Z,15.40
2023-01-10T14:52:34.488Z,16.00
2023-01-10T14:55:21.609Z,8.00
2023-01-10T14:58:17.460Z,9.60
2023-01-10T15:00:46.339Z,13.30
2023-01-10T15:03:20.828Z,19.80
2023-01-10T15:05:56.869Z,11.80
2023-01-10T15:08:28.910Z,15.90
2023-01-10T15:11:04.466Z,23.90
2023-01-10T15:13:41.216Z,16.90
2023-01-10T15:18:50.074Z,28.70
2023-01-10T15:21:22.082Z,18.80
2023-01-10T15:23:50.884Z,14.30
2023-01-10T15:26:30.228Z,13.60
2023-01-10T15:29:19.336Z,18.90
2023-01-10T15:31:48.102Z,20.90
2023-01-10T15:34:25.372Z,12.20
2023-01-10T15:36:57.413Z,116.80
2023-01-10T15:39:35.700Z,20.90
2023-01-10T15:42:11.416Z,10.40
2023-01-10T15:44:45.334Z,11.00
2023-01-10T15:47:37.837Z,16.80
2023-01-10T15:50:31.959Z,16.70
2023-01-10T15:53:07.518Z,16.20
2023-01-10T15:55:49.322Z,40.50
2023-01-10T15:58:37.826Z,32.30
2023-01-10T16:01:06.661Z,45.80
2023-01-10T16:03:49.871Z,22.40
2023-01-10T16:06:40.170Z,20.10
2023-01-10T16:09:19.962Z,13.90
2023-01-10T16:12:10.058Z,17.90
2023-01-10T16:14:38.518Z,23.50
2023-01-10T16:17:07.241Z,11.70
2023-01-10T16:19:35.735Z,16.50
2023-01-10T16:22:04.945Z,15.90
2023-01-10T16:24:36.380Z,13.70
2023-01-10T16:27:06.350Z,23.80
2023-01-10T16:29:34.807Z,31.10
2023-01-10T16:32:06.106Z,29.10
2023-01-10T16:34:34.599Z,31.90
2023-01-10T16:37:03.694Z,30.80
2023-01-10T16:39:32.135Z,37.70
2023-01-10T16:42:19.115Z,34.60
2023-01-10T16:44:47.631Z,27.80
2023-01-10T16:47:15.954Z,33.40
2023-01-10T16:49:45.466Z,33.50
2023-01-10T16:52:14.732Z,31.60
2023-01-10T16:54:43.146Z,39.90
2023-01-10T16:57:12.438Z,30.20
2023-01-10T16:59:40.902Z,32.30
2023-01-10T17:02:19.192Z,46.40
2023-01-10T17:04:47.649Z,29.80
2023-01-10T17:07:15.969Z,39.00
2023-01-10T17:09:44.288Z,23.10
2023-01-10T17:12:19.408Z,34.10
2023-01-10T17:17:16.649Z,65.60
2023-01-10T17:19:47.180Z,27.40
2023-01-10T17:22:15.920Z,24.40
2023-01-10T17:24:44.304Z,29.70
2023-01-10T17:27:12.909Z,40.60
2023-01-10T17:29:41.508Z,48.20
2023-01-10T17:32:11.445Z,35.80
2023-01-10T17:34:40.003Z,25.70
2023-01-10T17:37:08.277Z,28.80
2023-01-10T17:39:37.930Z,23.40
2023-01-10T17:42:06.920Z,27.60
2023-01-10T17:44:35.325Z,35.00
2023-01-10T17:47:03.973Z,36.70
2023-01-10T17:49:32.287Z,28.60
2023-01-10T17:52:00.845Z,18.10
2023-01-10T17:54:29.537Z,16.70
2023-01-10T17:56:57.853Z,16.40
2023-01-10T17:59:26.238Z,13.70
2023-01-10T18:01:58.466Z,14.10
2023-01-10T18:04:26.906Z,14.00
2023-01-10T18:06:55.215Z,15.70
2023-01-10T18:09:23.966Z,15.50
2023-01-10T18:11:52.408Z,14.40
2023-01-10T18:14:39.038Z,16.60
2023-01-10T18:17:11.334Z,20.40
2023-01-10T18:19:39.709Z,17.10
2023-01-10T18:22:26.613Z,18.50
2023-01-10T18:24:57.080Z,16.60
2023-01-10T18:27:27.209Z,11.50
2023-01-10T18:29:55.941Z,14.40
2023-01-10T18:32:25.133Z,13.60
2023-01-10T18:34:53.643Z,16.50
2023-01-10T18:37:21.993Z,17.20
2023-01-10T18:39:50.733Z,16.70
2023-01-10T18:42:19.195Z,13.20
2023-01-10T18:44:47.770Z,12.70
2023-01-10T18:47:16.221Z,15.30
2023-01-10T18:49:44.591Z,16.30
2023-01-10T18:52:13.123Z,19.30
2023-01-10T18:54:41.466Z,15.30
2023-01-10T18:57:09.815Z,14.90
2023-01-10T18:59:39.734Z,15.00
2023-01-10T19:02:15.890Z,17.00
2023-01-10T19:04:44.320Z,24.50
2023-01-10T19:07:12.803Z,21.30
2023-01-10T19:09:41.131Z,21.50
2023-01-10T19:12:09.540Z,18.00
2023-01-10T19:14:37.922Z,18.40
2023-01-10T19:17:06.665Z,26.90
2023-01-10T19:19:35.091Z,19.60
2023-01-10T19:22:03.581Z,14.70
2023-01-10T19:24:34.939Z,14.80
2023-01-10T19:27:04.513Z,19.30
2023-01-10T19:29:33.409Z,15.40
2023-01-10T19:32:04.227Z,15.70
2023-01-10T19:34:32.814Z,16.00
2023-01-10T19:37:01.205Z,23.70
2023-01-10T19:39:29.720Z,41.80
2023-01-10T19:41:58.127Z,53.70
2023-01-10T19:44:26.515Z,28.40
2023-01-10T19:46:54.881Z,21.40
2023-01-10T19:49:24.069Z,16.90
2023-01-10T19:51:53.771Z,20.00
2023-01-10T19:54:24.251Z,19.00
2023-01-10T19:56:52.697Z,19.10
2023-01-10T19:59:20.998Z,19.70
2023-01-10T20:01:49.740Z,20.10
2023-01-10T20:04:18.440Z,21.70
2023-01-10T20:06:47.626Z,19.20
2023-01-10T20:09:16.103Z,19.10
2023-01-10T20:11:46.265Z,21.20
2023-01-10T20:14:20.593Z,24.90
2023-01-10T20:16:49.163Z,20.90
2023-01-10T20:19:17.935Z,20.10
2023-01-10T20:21:46.308Z,19.90
2023-01-10T20:24:18.398Z,16.60
2023-01-10T20:26:48.986Z,18.10
2023-01-10T20:29:19.043Z,16.30
2023-01-10T20:31:52.719Z,18.10
2023-01-10T20:34:22.832Z,21.70
2023-01-10T20:36:54.039Z,16.00
2023-01-10T20:39:23.426Z,15.90
2023-01-10T20:41:52.563Z,17.40
2023-01-10T20:44:20.943Z,16.70
2023-01-10T20:46:49.478Z,18.90
2023-01-10T20:49:18.345Z,18.40
2023-01-10T20:51:47.482Z,23.70
2023-01-10T20:54:16.364Z,22.50
2023-01-10T20:56:44.689Z,19.40
2023-01-10T20:59:13.065Z,17.00
2023-01-10T21:01:41.467Z,15.60
2023-01-10T21:04:09.862Z,21.00
2023-01-10T21:06:38.291Z,25.90
2023-01-10T21:09:06.740Z,27.50
2023-01-10T21:11:47.817Z,26.70
2023-01-10T21:14:23.582Z,20.10
2023-01-10T21:16:51.987Z,16.90
2023-01-10T21:19:20.648Z,14.90
2023-01-10T21:21:49.242Z,17.70
2023-01-10T21:24:18.997Z,14.40
2023-01-10T21:26:47.404Z,16.50
2023-01-10T21:29:15.809Z,19.60
2023-01-10T21:31:44.330Z,21.30
2023-01-10T21:34:12.765Z,22.00
2023-01-10T21:36:41.164Z,20.50
2023-01-10T21:39:09.467Z,28.70
2023-01-10T21:41:56.446Z,31.90
2023-01-10T21:44:25.901Z,26.60
2023-01-10T21:46:54.341Z,28.20
2023-01-10T21:49:22.875Z,25.50
2023-01-10T21:51:51.242Z,27.40
2023-01-10T21:54:19.720Z,30.60
2023-01-10T21:56:48.109Z,30.10
2023-01-10T21:59:17.224Z,28.30
2023-01-10T22:01:47.073Z,22.40
2023-01-10T22:04:17.244Z,27.70
2023-01-10T22:06:45.977Z,28.10
2023-01-10T22:09:14.358Z,23.40
2023-01-10T22:11:42.706Z,25.00
2023-01-10T22:14:12.735Z,23.60
2023-01-10T22:16:41.059Z,18.60
2023-01-10T22:19:09.538Z,21.10
2023-01-10T22:21:37.850Z,18.00
2023-01-10T22:24:06.701Z,19.40
2023-01-10T22:26:35.216Z,18.90
2023-01-10T22:29:04.508Z,119.90
2023-01-10T22:31:32.888Z,87.30
2023-01-10T22:34:01.258Z,28.60
2023-01-10T22:36:29.633Z,14.60
2023-01-10T22:38:58.000Z,12.50
2023-01-10T22:41:27.387Z,12.30
2023-01-10T22:43:56.363Z,13.70
2023-01-10T22:46:25.353Z,11.30
2023-01-10T22:48:54.003Z,12.70
2023-01-10T22:51:24.121Z,12.50
2023-01-10T22:53:55.277Z,11.60
2023-01-10T22:56:26.266Z,10.20
2023-01-10T22:58:54.663Z,16.20
2023-01-10T23:01:24.940Z,18.40
2023-01-10T23:03:53.264Z,13.50
2023-01-10T23:06:21.863Z,13.40
2023-01-10T23:08:51.393Z,12.00
2023-01-10T23:11:21.613Z,30.10
2023-01-10T23:13:49.932Z,30.50
2023-01-10T23:16:28.605Z,30.40
2023-01-10T23:18:58.386Z,18.60
2023-01-10T23:21:29.272Z,17.50
2023-01-10T23:23:57.688Z,20.80
2023-01-10T23:26:26.036Z,33.00
2023-01-10T23:28:54.498Z,24.10
2023-01-10T23:31:29.318Z,21.00
2023-01-10T23:33:58.436Z,19.70
2023-01-10T23:36:26.800Z,17.70
2023-01-10T23:38:55.173Z,19.00
2023-01-10T23:41:23.939Z,22.30
2023-01-10T23:43:52.454Z,23.20
2023-01-10T23:46:21.066Z,37.80
2023-01-10T23:48:49.412Z,21.70
2023-01-10T23:51:17.776Z,18.50
2023-01-10T23:53:46.101Z,13.30
2023-01-10T23:56:15.602Z,20.20
2023-01-10T23:58:43.955Z,15.00
